Callao, Missouri
Current Conditions -  °F | °C
As of 11:55 AM on Thursday 18 Dec 2014 (Local Time) from KIRK Reporting Station
Overcast Overcast  
Wind Chill: 22°   Ceiling: 800
Heat Index: 28°   Visibility: 7mi
Dew Point: 25°   Wind: 6mph
Humidity: 88%   Direction: 130°SE
Pressure: 30.25"   Gusts: NA
Location:  39.76°N, 92.62°W
Report Text: KIRK 181755Z AUTO 13005KT 7SM OVC008 M02/M04 A3025 RMK AO2 SLP260 60006 T10221039 11022 21039 58012
Loading
Personal Weather Stations






























Interactive Weather Map New forecast layout! Learn more

10-Day Weather Forecast

Advertisements
Track Severe Weather on mobile